createdAt,value
2023-05-02T00:02:10.239Z,11.69
2023-05-02T00:04:38.213Z,11.64
2023-05-02T00:07:06.892Z,11.62
2023-05-02T00:09:34.780Z,11.62
2023-05-02T00:12:02.558Z,11.64
2023-05-02T00:14:30.450Z,11.66
2023-05-02T00:16:58.270Z,11.65
2023-05-02T00:19:27.451Z,11.66
2023-05-02T00:21:55.249Z,11.66
2023-05-02T00:24:23.024Z,11.67
2023-05-02T00:26:50.757Z,11.66
2023-05-02T00:29:18.676Z,11.66
2023-05-02T00:31:46.502Z,11.63
2023-05-02T00:34:14.283Z,11.66
2023-05-02T00:36:43.452Z,11.71
2023-05-02T00:39:11.372Z,11.67
2023-05-02T00:41:39.122Z,11.63
2023-05-02T00:44:07.127Z,11.60
2023-05-02T00:46:35.798Z,11.59
2023-05-02T00:49:03.646Z,11.58
2023-05-02T00:51:31.622Z,11.58
2023-05-02T00:54:01.887Z,11.51
2023-05-02T00:56:29.675Z,11.44
2023-05-02T00:58:58.016Z,11.44
2023-05-02T01:01:35.048Z,11.49
2023-05-02T01:04:19.235Z,11.43
2023-05-02T01:06:54.766Z,11.39
2023-05-02T01:09:38.771Z,11.41
2023-05-02T01:12:17.068Z,11.32
2023-05-02T01:14:51.924Z,11.32
2023-05-02T01:17:21.859Z,11.36
2023-05-02T01:19:55.023Z,11.27
2023-05-02T01:22:25.460Z,11.18
2023-05-02T01:25:05.191Z,11.08
2023-05-02T01:27:42.382Z,11.02
2023-05-02T01:30:15.946Z,10.93
2023-05-02T01:32:46.446Z,10.91
2023-05-02T01:35:17.070Z,10.79
2023-05-02T01:37:46.777Z,10.71
2023-05-02T01:40:19.451Z,10.75
2023-05-02T01:42:49.955Z,10.77
2023-05-02T01:45:20.895Z,10.74
2023-05-02T01:47:48.982Z,10.80
2023-05-02T01:50:20.281Z,10.89
2023-05-02T01:52:50.488Z,10.92
2023-05-02T01:55:18.948Z,10.90
2023-05-02T01:57:50.491Z,10.80
2023-05-02T02:00:21.514Z,10.73
2023-05-02T02:02:52.320Z,10.69
2023-05-02T02:05:21.699Z,10.63
2023-05-02T02:07:50.088Z,10.60
2023-05-02T02:10:19.511Z,10.56
2023-05-02T02:12:54.365Z,10.54
2023-05-02T02:15:29.063Z,10.50
2023-05-02T02:18:01.597Z,10.53
2023-05-02T02:20:31.920Z,10.53
2023-05-02T02:23:03.507Z,10.51
2023-05-02T02:25:32.255Z,10.57
2023-05-02T02:28:00.427Z,10.59
2023-05-02T02:30:30.466Z,10.56
2023-05-02T02:32:58.268Z,10.59
2023-05-02T02:35:32.338Z,10.58
2023-05-02T02:38:09.678Z,10.60
2023-05-02T02:40:45.512Z,10.54
2023-05-02T02:43:20.441Z,10.55
2023-05-02T02:45:57.154Z,10.60
2023-05-02T02:48:34.030Z,10.61
2023-05-02T02:51:12.646Z,10.52
2023-05-02T02:53:50.692Z,10.40
2023-05-02T02:56:24.640Z,10.40
2023-05-02T02:58:58.582Z,10.45
2023-05-02T03:01:32.378Z,10.41
2023-05-02T03:04:00.686Z,10.42
2023-05-02T03:06:28.716Z,10.42
2023-05-02T03:08:57.703Z,10.47
2023-05-02T03:11:30.118Z,10.44
2023-05-02T03:13:59.055Z,10.42
2023-05-02T03:16:39.798Z,10.42
2023-05-02T03:19:11.727Z,10.46
2023-05-02T03:21:39.788Z,10.49
2023-05-02T03:24:13.811Z,10.47
2023-05-02T03:26:41.586Z,10.43
2023-05-02T03:29:11.879Z,10.42
2023-05-02T03:31:44.312Z,10.35
2023-05-02T03:34:13.089Z,10.30
2023-05-02T03:36:41.503Z,10.33
2023-05-02T03:39:09.285Z,10.32
2023-05-02T03:41:37.840Z,10.34
2023-05-02T03:44:09.293Z,10.37
2023-05-02T03:46:37.922Z,10.38
2023-05-02T03:49:10.928Z,10.37
2023-05-02T03:51:40.423Z,10.28
2023-05-02T03:54:09.852Z,10.20
2023-05-02T03:56:42.733Z,10.07
2023-05-02T03:59:20.559Z,10.07
2023-05-02T04:01:50.904Z,10.04
2023-05-02T04:04:22.374Z,10.04
2023-05-02T04:06:52.996Z,9.98
2023-05-02T04:09:25.091Z,9.92
2023-05-02T04:11:57.868Z,9.91
2023-05-02T04:14:25.781Z,9.92
2023-05-02T04:16:55.494Z,9.91
2023-05-02T04:19:35.230Z,9.93
2023-05-02T04:22:04.187Z,9.92
2023-05-02T04:24:35.848Z,9.84
2023-05-02T04:27:03.985Z,9.83
2023-05-02T04:29:32.300Z,9.77
2023-05-02T04:32:00.508Z,9.75
2023-05-02T04:34:30.362Z,9.76
2023-05-02T04:36:59.575Z,9.70
2023-05-02T04:39:27.364Z,9.66
2023-05-02T04:42:17.802Z,9.57
2023-05-02T04:44:59.159Z,9.54
2023-05-02T04:47:27.185Z,9.58
2023-05-02T04:49:55.002Z,9.59
2023-05-02T04:52:24.466Z,9.55
2023-05-02T04:54:52.361Z,9.50
2023-05-02T04:57:21.307Z,9.47
2023-05-02T04:59:54.562Z,9.51
2023-05-02T05:02:23.111Z,9.49
2023-05-02T05:04:51.110Z,9.49
2023-05-02T05:07:20.581Z,9.50
2023-05-02T05:09:53.399Z,9.52
2023-05-02T05:12:23.342Z,9.54
2023-05-02T05:14:51.596Z,9.52
2023-05-02T05:17:21.571Z,9.56
2023-05-02T05:19:49.413Z,9.56
2023-05-02T05:22:17.148Z,9.61
2023-05-02T05:24:53.735Z,9.64
2023-05-02T05:27:23.086Z,9.65
2023-05-02T05:29:50.913Z,9.68
2023-05-02T05:32:18.730Z,9.63
2023-05-02T05:34:46.888Z,9.57
2023-05-02T05:37:14.822Z,9.47
2023-05-02T05:39:42.888Z,9.40
2023-05-02T05:42:13.106Z,9.35
2023-05-02T05:44:42.636Z,9.36
2023-05-02T05:47:11.465Z,9.38
2023-05-02T05:49:39.312Z,9.39
2023-05-02T05:52:10.393Z,9.45
2023-05-02T05:54:38.407Z,9.45
2023-05-02T05:57:06.420Z,9.47
2023-05-02T05:59:37.538Z,9.53
2023-05-02T06:02:07.876Z,9.55
2023-05-02T06:04:35.769Z,9.56
2023-05-02T06:07:03.859Z,9.60
2023-05-02T06:09:31.639Z,9.60
2023-05-02T06:11:59.619Z,9.65
2023-05-02T06:14:36.908Z,9.66
2023-05-02T06:17:06.910Z,9.73
2023-05-02T06:19:34.765Z,9.84
2023-05-02T06:22:02.562Z,9.95
2023-05-02T06:24:30.317Z,10.02
2023-05-02T06:26:58.095Z,10.04
2023-05-02T06:29:25.830Z,10.05
2023-05-02T06:31:56.641Z,10.10
2023-05-02T06:34:25.868Z,10.11
2023-05-02T06:36:56.307Z,10.18
2023-05-02T06:39:24.241Z,10.25
2023-05-02T06:41:52.149Z,10.31
2023-05-02T06:44:19.930Z,10.38
2023-05-02T06:46:47.717Z,10.40
2023-05-02T06:49:15.533Z,10.41
2023-05-02T06:51:44.863Z,10.41
2023-05-02T06:54:12.750Z,10.39
2023-05-02T06:56:40.520Z,10.38
2023-05-02T06:59:08.267Z,10.38
2023-05-02T07:01:36.084Z,10.37
2023-05-02T07:04:04.401Z,10.30
2023-05-02T07:06:32.331Z,10.25
2023-05-02T07:09:01.500Z,10.24
2023-05-02T07:11:29.320Z,10.20
2023-05-02T07:13:57.709Z,10.20
2023-05-02T07:16:25.745Z,10.24
2023-05-02T07:18:53.567Z,10.24
2023-05-02T07:21:21.359Z,10.29
2023-05-02T07:23:49.147Z,10.34
2023-05-02T07:26:18.921Z,10.40
2023-05-02T07:28:46.668Z,10.38
2023-05-02T07:31:14.456Z,10.34
2023-05-02T07:33:42.291Z,10.30
2023-05-02T07:36:10.031Z,10.35
2023-05-02T07:38:37.871Z,10.42
2023-05-02T07:41:05.677Z,10.47
2023-05-02T07:43:34.894Z,10.59
2023-05-02T07:46:06.084Z,10.61
2023-05-02T07:48:34.117Z,10.65
2023-05-02T07:51:07.801Z,10.69
2023-05-02T07:53:35.668Z,10.71
2023-05-02T07:56:04.954Z,10.75
2023-05-02T07:58:34.094Z,10.79
2023-05-02T08:01:02.504Z,10.88
2023-05-02T08:03:30.613Z,10.93
2023-05-02T08:05:58.974Z,10.95
2023-05-02T08:08:26.739Z,10.95
2023-05-02T08:10:54.483Z,11.02
2023-05-02T08:13:22.246Z,11.05
2023-05-02T08:15:51.532Z,11.04
2023-05-02T08:18:19.330Z,11.07
2023-05-02T08:20:48.254Z,11.09
2023-05-02T08:23:16.122Z,11.15
2023-05-02T08:25:43.972Z,11.23
2023-05-02T08:28:11.761Z,11.14
2023-05-02T08:30:39.486Z,11.15
2023-05-02T08:33:08.613Z,11.23
2023-05-02T08:35:36.458Z,11.24
2023-05-02T08:38:04.213Z,11.28
2023-05-02T08:40:42.174Z,11.37
2023-05-02T08:43:12.335Z,11.58
2023-05-02T08:45:41.752Z,11.77
2023-05-02T08:48:13.220Z,11.88
2023-05-02T08:50:43.547Z,11.93
2023-05-02T08:53:12.333Z,11.94
2023-05-02T08:55:41.652Z,12.00
2023-05-02T08:58:10.644Z,12.11
2023-05-02T09:00:40.997Z,12.29
2023-05-02T09:03:23.777Z,12.45
2023-05-02T09:05:53.755Z,12.54
2023-05-02T09:08:24.237Z,12.64
2023-05-02T09:10:52.636Z,12.75
2023-05-02T09:13:31.969Z,12.86
2023-05-02T09:16:02.258Z,12.90
2023-05-02T09:18:33.607Z,12.98
2023-05-02T09:21:02.760Z,13.06
2023-05-02T09:23:34.757Z,13.12
2023-05-02T09:26:02.735Z,13.07
2023-05-02T09:28:42.052Z,13.07
2023-05-02T09:31:11.189Z,13.12
2023-05-02T09:33:40.598Z,13.16
2023-05-02T09:36:09.977Z,13.25
2023-05-02T09:38:37.805Z,13.27
2023-05-02T09:41:05.920Z,13.59
2023-05-02T09:43:33.940Z,14.27
2023-05-02T09:46:04.118Z,14.94
2023-05-02T09:48:33.640Z,15.22
2023-05-02T09:51:02.815Z,15.07
2023-05-02T09:53:30.582Z,15.53
2023-05-02T09:56:02.356Z,15.43
2023-05-02T09:58:31.455Z,15.54
2023-05-02T10:01:00.398Z,15.26
2023-05-02T10:03:29.370Z,15.29
2023-05-02T10:05:58.069Z,15.67
2023-05-02T10:08:29.185Z,15.99
2023-05-02T10:10:58.354Z,16.53
2023-05-02T10:13:32.571Z,17.04
2023-05-02T10:16:02.995Z,17.00
2023-05-02T10:18:49.327Z,17.04
2023-05-02T10:21:18.745Z,17.19
2023-05-02T10:23:48.950Z,17.50
2023-05-02T10:26:18.921Z,16.99
2023-05-02T10:28:47.045Z,17.11
2023-05-02T10:31:16.207Z,17.66
2023-05-02T10:33:44.500Z,18.34
2023-05-02T10:36:14.063Z,18.14
2023-05-02T10:38:43.203Z,17.78
2023-05-02T10:41:17.280Z,17.88
2023-05-02T10:43:49.041Z,18.13
2023-05-02T10:46:33.782Z,18.57
2023-05-02T10:49:03.252Z,19.06
2023-05-02T10:51:32.396Z,19.26
2023-05-02T10:54:21.563Z,18.40
2023-05-02T10:57:09.568Z,18.56
2023-05-02T10:59:39.508Z,18.84
2023-05-02T11:02:45.858Z,18.97
2023-05-02T11:05:13.576Z,19.26
2023-05-02T11:07:41.400Z,19.61
2023-05-02T11:10:28.545Z,19.62
2023-05-02T11:13:01.127Z,19.43
2023-05-02T11:15:57.820Z,19.30
2023-05-02T11:18:25.706Z,19.40
2023-05-02T11:20:53.630Z,19.40
2023-05-02T11:23:28.094Z,19.33
2023-05-02T11:25:57.524Z,19.14
2023-05-02T11:28:43.352Z,18.80
2023-05-02T11:31:46.547Z,19.21
2023-05-02T11:34:14.877Z,19.70
2023-05-02T11:36:43.367Z,20.10
2023-05-02T11:39:20.557Z,19.99
2023-05-02T11:41:51.017Z,20.10
2023-05-02T11:44:20.169Z,20.02
2023-05-02T11:46:48.063Z,20.47
2023-05-02T11:49:16.408Z,21.06
2023-05-02T11:51:44.390Z,21.36
2023-05-02T11:54:20.182Z,20.77
2023-05-02T11:56:48.400Z,21.07
2023-05-02T11:59:16.555Z,21.06
2023-05-02T12:01:50.237Z,20.88
2023-05-02T12:04:21.844Z,20.64
2023-05-02T12:06:56.869Z,21.09
2023-05-02T12:09:24.771Z,21.08
2023-05-02T12:11:56.017Z,21.23
2023-05-02T12:14:30.658Z,21.46
2023-05-02T12:17:00.660Z,21.52
2023-05-02T12:19:28.858Z,21.31
2023-05-02T12:21:56.732Z,21.19
2023-05-02T12:24:24.730Z,20.98
2023-05-02T12:27:10.280Z,21.10
2023-05-02T12:29:42.841Z,21.49
2023-05-02T12:32:12.242Z,21.34
2023-05-02T12:34:41.442Z,21.07
2023-05-02T12:37:10.171Z,21.16
2023-05-02T12:39:39.357Z,21.10
2023-05-02T12:42:11.658Z,21.07
2023-05-02T12:44:40.173Z,21.16
2023-05-02T12:47:08.849Z,21.29
2023-05-02T12:49:51.514Z,21.60
2023-05-02T12:52:19.557Z,22.04
2023-05-02T12:54:47.314Z,22.04
2023-05-02T12:57:25.700Z,21.55
2023-05-02T12:59:54.681Z,21.75
2023-05-02T13:02:22.891Z,21.83
2023-05-02T13:04:52.826Z,21.81
2023-05-02T13:07:20.670Z,21.76
2023-05-02T13:09:48.501Z,21.71
2023-05-02T13:12:16.670Z,21.50
2023-05-02T13:14:44.534Z,21.73
2023-05-02T13:17:12.783Z,22.01
2023-05-02T13:19:44.609Z,22.30
2023-05-02T13:22:19.921Z,22.87
2023-05-02T13:24:47.726Z,22.91
2023-05-02T13:27:18.315Z,22.59
2023-05-02T13:29:46.148Z,22.67
2023-05-02T13:32:14.078Z,23.01
2023-05-02T13:34:41.954Z,22.83
2023-05-02T13:37:09.958Z,22.50
2023-05-02T13:39:39.059Z,22.48
2023-05-02T13:42:07.957Z,22.52
2023-05-02T13:44:36.444Z,22.42
2023-05-02T13:47:04.366Z,22.56
2023-05-02T13:49:32.146Z,22.39
2023-05-02T13:51:59.918Z,21.97
2023-05-02T13:54:27.906Z,22.20
2023-05-02T13:56:57.068Z,22.66
2023-05-02T13:59:24.874Z,22.84
2023-05-02T14:01:52.687Z,22.77
2023-05-02T14:04:22.233Z,23.45
2023-05-02T14:06:50.889Z,23.12
2023-05-02T14:09:18.681Z,23.16
2023-05-02T14:11:47.285Z,23.30
2023-05-02T14:14:16.475Z,24.03
2023-05-02T14:16:44.343Z,24.42
2023-05-02T14:19:12.102Z,22.81
2023-05-02T14:21:39.907Z,22.65
2023-05-02T14:24:07.947Z,23.00
2023-05-02T14:26:35.884Z,23.06
2023-05-02T14:29:03.666Z,23.35
2023-05-02T14:31:32.852Z,23.76
2023-05-02T14:34:00.651Z,24.07
2023-05-02T14:36:28.401Z,24.35
2023-05-02T14:38:56.170Z,23.52
2023-05-02T14:41:24.035Z,23.44
2023-05-02T14:43:53.210Z,22.67
2023-05-02T14:46:21.069Z,22.40
2023-05-02T14:48:50.301Z,22.00
2023-05-02T14:51:18.110Z,21.63
2023-05-02T14:53:45.897Z,21.36
2023-05-02T14:56:15.978Z,21.20
2023-05-02T14:58:43.859Z,21.39
2023-05-02T15:01:18.482Z,21.29
2023-05-02T15:04:04.395Z,20.90
2023-05-02T15:06:35.550Z,20.69
2023-05-02T15:09:04.077Z,20.24
2023-05-02T15:11:31.936Z,20.12
2023-05-02T15:13:59.819Z,20.13
2023-05-02T15:16:27.839Z,20.42
2023-05-02T15:18:55.796Z,20.09
2023-05-02T15:21:23.775Z,19.62
2023-05-02T15:23:53.006Z,19.34
2023-05-02T15:26:21.275Z,19.37
2023-05-02T15:28:49.117Z,18.73
2023-05-02T15:31:16.936Z,18.75
2023-05-02T15:33:44.723Z,18.96
2023-05-02T15:36:12.560Z,18.93
2023-05-02T15:38:42.606Z,18.88
2023-05-02T15:41:12.106Z,18.82
2023-05-02T15:43:39.962Z,18.55
2023-05-02T15:46:07.766Z,18.10
2023-05-02T15:48:35.830Z,18.49
2023-05-02T15:51:05.391Z,18.13
2023-05-02T15:53:34.611Z,18.01
2023-05-02T15:56:02.453Z,17.91
2023-05-02T15:58:31.556Z,17.78
2023-05-02T16:00:59.306Z,18.09
2023-05-02T16:03:27.300Z,18.21
2023-05-02T16:05:56.047Z,18.03
2023-05-02T16:08:23.812Z,17.66
2023-05-02T16:10:51.564Z,17.78
2023-05-02T16:13:19.583Z,17.80
2023-05-02T16:15:49.234Z,17.50
2023-05-02T16:18:17.171Z,17.45
2023-05-02T16:20:45.220Z,17.57
2023-05-02T16:23:13.001Z,17.45
2023-05-02T16:25:40.875Z,17.25
2023-05-02T16:28:08.764Z,17.22
2023-05-02T16:30:37.499Z,16.81
2023-05-02T16:33:07.101Z,16.64
2023-05-02T16:35:34.998Z,16.67
2023-05-02T16:38:03.996Z,16.52
2023-05-02T16:40:33.980Z,16.44
2023-05-02T16:43:01.824Z,16.49
2023-05-02T16:45:29.712Z,16.51
2023-05-02T16:47:58.046Z,16.26
2023-05-02T16:50:27.374Z,16.23
2023-05-02T16:52:55.148Z,15.92
2023-05-02T16:55:23.115Z,15.87
2023-05-02T16:57:50.890Z,15.98
2023-05-02T17:00:19.340Z,16.07
2023-05-02T17:02:47.547Z,15.96
2023-05-02T17:05:15.745Z,16.04
2023-05-02T17:07:45.223Z,15.86
2023-05-02T17:10:13.141Z,15.73
2023-05-02T17:12:40.972Z,15.66
2023-05-02T17:15:09.553Z,15.82
2023-05-02T17:17:37.389Z,15.75
2023-05-02T17:20:06.351Z,15.71
2023-05-02T17:22:35.607Z,15.51
2023-05-02T17:25:06.282Z,15.51
2023-05-02T17:27:34.171Z,15.52
2023-05-02T17:30:02.265Z,15.41
2023-05-02T17:32:30.213Z,15.45
2023-05-02T17:34:58.807Z,15.29
2023-05-02T17:37:26.765Z,15.30
2023-05-02T17:39:54.551Z,15.23
2023-05-02T17:42:23.753Z,15.07
2023-05-02T17:44:53.436Z,14.98
2023-05-02T17:47:22.050Z,14.90
2023-05-02T17:49:53.160Z,14.84
2023-05-02T17:52:21.357Z,14.69
2023-05-02T17:54:49.239Z,14.68
2023-05-02T17:57:17.075Z,14.57
2023-05-02T17:59:46.304Z,14.39
2023-05-02T18:02:15.654Z,14.31
2023-05-02T18:04:45.309Z,14.17
2023-05-02T18:07:13.270Z,14.10
2023-05-02T18:09:41.061Z,14.01
2023-05-02T18:12:09.640Z,13.97
2023-05-02T18:14:37.444Z,13.91
2023-05-02T18:17:09.791Z,13.88
2023-05-02T18:19:37.786Z,13.82
2023-05-02T18:22:05.864Z,13.77
2023-05-02T18:24:37.747Z,13.57
2023-05-02T18:27:05.896Z,13.44
2023-05-02T18:29:36.903Z,13.48
2023-05-02T18:32:06.322Z,13.42
2023-05-02T18:34:36.991Z,13.34
2023-05-02T18:37:06.995Z,13.30
2023-05-02T18:39:35.676Z,13.24
2023-05-02T18:42:04.091Z,13.24
2023-05-02T18:44:32.191Z,13.22
2023-05-02T18:47:00.945Z,13.20
2023-05-02T18:49:30.103Z,13.19
2023-05-02T18:51:57.916Z,13.17
2023-05-02T18:54:27.809Z,13.05
2023-05-02T18:56:55.620Z,12.89
2023-05-02T18:59:23.441Z,12.85
2023-05-02T19:01:51.709Z,12.80
2023-05-02T19:04:19.694Z,12.81
2023-05-02T19:06:49.140Z,12.83
2023-05-02T19:09:18.551Z,12.73
2023-05-02T19:11:46.289Z,12.71
2023-05-02T19:14:14.092Z,12.73
2023-05-02T19:16:41.891Z,12.75
2023-05-02T19:19:09.705Z,12.71
2023-05-02T19:21:37.501Z,12.60
2023-05-02T19:24:07.159Z,12.42
2023-05-02T19:26:34.977Z,12.32
2023-05-02T19:29:03.058Z,12.18
2023-05-02T19:31:31.476Z,12.12
2023-05-02T19:34:00.109Z,12.10
2023-05-02T19:36:28.442Z,12.07
2023-05-02T19:38:58.098Z,12.02
2023-05-02T19:41:27.612Z,11.96
2023-05-02T19:43:56.904Z,11.96
2023-05-02T19:46:24.722Z,11.95
2023-05-02T19:48:52.538Z,11.88
2023-05-02T19:51:25.282Z,11.77
2023-05-02T19:53:53.860Z,11.58
2023-05-02T19:56:25.288Z,11.58
2023-05-02T19:58:54.833Z,11.62
2023-05-02T20:01:22.754Z,11.65
2023-05-02T20:03:50.869Z,11.63
2023-05-02T20:06:18.915Z,11.58
2023-05-02T20:08:46.734Z,11.52
2023-05-02T20:11:14.652Z,11.45
2023-05-02T20:13:42.476Z,11.25
2023-05-02T20:16:11.898Z,11.20
2023-05-02T20:18:39.735Z,11.18
2023-05-02T20:21:07.651Z,11.15
2023-05-02T20:23:35.532Z,11.11
2023-05-02T20:26:03.461Z,11.08
2023-05-02T20:28:31.479Z,11.14
2023-05-02T20:30:59.254Z,11.09
2023-05-02T20:33:41.245Z,10.99
2023-05-02T20:36:13.369Z,10.95
2023-05-02T20:38:42.340Z,11.02
2023-05-02T20:41:12.660Z,11.01
2023-05-02T20:43:41.501Z,10.97
2023-05-02T20:46:13.436Z,10.90
2023-05-02T20:48:42.717Z,10.81
2023-05-02T20:51:10.582Z,10.75
2023-05-02T20:53:38.391Z,10.74
2023-05-02T20:56:06.788Z,10.75
2023-05-02T20:58:36.580Z,10.72
2023-05-02T21:01:04.477Z,10.63
2023-05-02T21:03:36.508Z,10.48
2023-05-02T21:06:05.999Z,10.51
2023-05-02T21:08:33.799Z,10.48
2023-05-02T21:11:01.594Z,10.45
2023-05-02T21:13:29.361Z,10.37
2023-05-02T21:15:57.226Z,10.31
2023-05-02T21:18:25.007Z,10.30
2023-05-02T21:20:52.752Z,10.20
2023-05-02T21:23:21.899Z,10.11
2023-05-02T21:25:49.630Z,10.07
2023-05-02T21:28:17.368Z,9.99
2023-05-02T21:30:45.144Z,9.99
2023-05-02T21:33:14.813Z,9.89
2023-05-02T21:35:42.566Z,9.71
2023-05-02T21:38:10.489Z,9.50
2023-05-02T21:40:40.305Z,9.48
2023-05-02T21:43:08.063Z,9.33
2023-05-02T21:45:35.820Z,9.38
2023-05-02T21:48:03.661Z,9.36
2023-05-02T21:50:31.491Z,9.25
2023-05-02T21:52:59.245Z,9.11
2023-05-02T21:55:27.176Z,9.16
2023-05-02T21:57:56.297Z,9.15
2023-05-02T22:00:24.280Z,9.13
2023-05-02T22:02:52.227Z,9.05
2023-05-02T22:05:20.107Z,9.07
2023-05-02T22:07:49.527Z,9.02
2023-05-02T22:10:17.782Z,9.07
2023-05-02T22:12:45.606Z,9.02
2023-05-02T22:15:15.110Z,8.98
2023-05-02T22:17:43.496Z,8.96
2023-05-02T22:20:13.061Z,8.99
2023-05-02T22:22:41.306Z,8.95
2023-05-02T22:25:09.825Z,8.96
2023-05-02T22:27:37.610Z,8.93
2023-05-02T22:30:06.164Z,8.92
2023-05-02T22:32:35.445Z,8.84
2023-05-02T22:35:03.873Z,8.81
2023-05-02T22:37:31.665Z,8.78
2023-05-02T22:39:59.764Z,8.75
2023-05-02T22:42:27.700Z,8.64
2023-05-02T22:44:55.529Z,8.58
2023-05-02T22:47:23.285Z,8.62
2023-05-02T22:49:56.736Z,8.54
2023-05-02T22:52:27.272Z,8.47
2023-05-02T22:54:55.273Z,8.44
2023-05-02T22:57:23.110Z,8.48
2023-05-02T22:59:50.925Z,8.43
2023-05-02T23:02:18.741Z,8.45
2023-05-02T23:04:46.495Z,8.51
2023-05-02T23:07:15.649Z,8.45
2023-05-02T23:09:43.399Z,8.41
2023-05-02T23:12:11.195Z,8.38
2023-05-02T23:14:38.938Z,8.38
2023-05-02T23:17:06.727Z,8.34
2023-05-02T23:19:34.562Z,8.30
2023-05-02T23:22:02.458Z,8.26
2023-05-02T23:24:31.571Z,8.23
2023-05-02T23:26:59.367Z,8.23
2023-05-02T23:29:27.274Z,8.22
2023-05-02T23:31:55.560Z,8.12
2023-05-02T23:34:23.643Z,7.98
2023-05-02T23:36:52.737Z,7.99
2023-05-02T23:39:21.036Z,7.88
2023-05-02T23:41:50.207Z,7.81
2023-05-02T23:44:18.012Z,7.74
2023-05-02T23:46:45.878Z,7.77
2023-05-02T23:49:13.649Z,7.82
2023-05-02T23:51:41.692Z,7.80
2023-05-02T23:54:09.474Z,7.79
2023-05-02T23:56:37.305Z,7.75
2023-05-02T23:59:06.507Z,7.65
